Time,TemperatureF,DewpointF,PressureIn,WindDirection,WindDirectionDegrees,WindSpeedMPH,WindSpeedGustMPH,Humidity,HourlyPrecipIn,Conditions,Clouds,dailyrainin,SolarRadiationWatts/m^2,SoftwareType,DateUTC
2013-05-31 00:00:00,66.8,64.4,30.17,South,171,0.0,7.0,92,0.00,,,0.00,0,Wunderground v.1.15,2013-05-31 04:00:00,
2013-05-31 00:05:00,66.9,64.5,30.17,South,171,0.0,7.0,92,0.00,,,0.00,0,Wunderground v.1.15,2013-05-31 04:05:00,
2013-05-31 00:10:00,66.7,64.3,30.17,South,174,0.0,7.0,92,0.00,,,0.00,0,Wunderground v.1.15,2013-05-31 04:10:00,
2013-05-31 00:15:00,66.8,64.4,30.17,South,175,0.0,7.0,92,0.00,,,0.00,0,Wunderground v.1.15,2013-05-31 04:15:00,
2013-05-31 00:20:00,66.9,64.5,30.18,South,169,0.0,7.0,92,0.00,,,0.00,0,Wunderground v.1.15,2013-05-31 04:20:00,
2013-05-31 00:25:00,67.6,64.9,30.18,South,183,1.0,7.0,91,0.00,,,0.00,0,Wunderground v.1.15,2013-05-31 04:25:00,
2013-05-31 00:30:00,68.3,65.3,30.18,SSE,161,2.0,2.0,90,0.00,,,0.00,0,Wunderground v.1.15,2013-05-31 04:30:00,
2013-05-31 00:35:00,69.0,65.3,30.18,South,178,1.0,5.0,88,0.00,,,0.00,0,Wunderground v.1.15,2013-05-31 04:35:00,
2013-05-31 00:45:00,69.8,66.1,30.18,South,169,2.0,5.0,88,0.00,,,0.00,0,Wunderground v.1.15,2013-05-31 04:45:00,
2013-05-31 00:50:00,70.1,66.0,30.18,South,175,1.0,1.0,87,0.00,,,0.00,0,Wunderground v.1.15,2013-05-31 04:50:00,
2013-05-31 00:55:00,70.3,66.2,30.18,SSE,156,1.0,7.0,87,0.00,,,0.00,0,Wunderground v.1.15,2013-05-31 04:55:00,
2013-05-31 01:00:00,70.4,66.3,30.18,South,174,1.0,1.0,87,0.00,,,0.00,0,Wunderground v.1.15,2013-05-31 05:00:00,
2013-05-31 01:05:00,70.4,66.3,30.18,SSE,154,1.0,7.0,87,0.00,,,0.00,0,Wunderground v.1.15,2013-05-31 05:05:00,
2013-05-31 01:10:00,70.3,66.6,30.18,SSE,162,0.0,7.0,88,0.00,,,0.00,0,Wunderground v.1.15,2013-05-31 05:10:00,
2013-05-31 01:15:00,70.2,66.5,30.18,South,173,1.0,7.0,88,0.00,,,0.00,0,Wunderground v.1.15,2013-05-31 05:15:00,
2013-05-31 01:20:00,70.1,66.4,30.17,South,182,1.0,1.0,88,0.00,,,0.00,0,Wunderground v.1.15,2013-05-31 05:20:00,
2013-05-31 01:25:00,70.0,66.6,30.17,SSE,153,0.0,7.0,89,0.00,,,0.00,0,Wunderground v.1.15,2013-05-31 05:25:00,
2013-05-31 01:30:00,69.9,66.5,30.17,South,179,1.0,1.0,89,0.00,,,0.00,0,Wunderground v.1.15,2013-05-31 05:30:00,
2013-05-31 01:40:00,69.9,66.8,30.17,SE,146,1.0,1.0,90,0.00,,,0.00,0,Wunderground v.1.15,2013-05-31 05:40:00,
2013-05-31 01:45:00,69.9,66.8,30.17,South,184,1.0,7.0,90,0.00,,,0.00,0,Wunderground v.1.15,2013-05-31 05:45:00,
2013-05-31 01:50:00,69.9,67.2,30.17,South,175,0.0,7.0,91,0.00,,,0.00,0,Wunderground v.1.15,2013-05-31 05:50:00,
2013-05-31 01:55:00,70.1,67.3,30.18,SSE,167,0.0,7.0,91,0.00,,,0.00,0,Wunderground v.1.15,2013-05-31 05:55:00,
2013-05-31 02:00:00,70.2,67.4,30.18,SSE,160,0.0,7.0,91,0.00,,,0.00,0,Wunderground v.1.15,2013-05-31 06:00:00,
2013-05-31 02:10:00,70.3,67.5,30.18,SSE,163,0.0,7.0,91,0.00,,,0.00,0,Wunderground v.1.15,2013-05-31 06:10:00,
2013-05-31 02:15:00,70.4,67.6,30.18,SE,146,0.0,7.0,91,0.00,,,0.00,0,Wunderground v.1.15,2013-05-31 06:15:00,
2013-05-31 02:20:00,70.4,67.6,30.18,SSE,149,0.0,7.0,91,0.00,,,0.00,0,Wunderground v.1.15,2013-05-31 06:20:00,
2013-05-31 02:25:00,70.4,67.6,30.18,SSE,148,0.0,7.0,91,0.00,,,0.00,0,Wunderground v.1.15,2013-05-31 06:25:00,
2013-05-31 02:35:00,70.4,67.6,30.18,SSE,150,0.0,7.0,91,0.00,,,0.00,0,Wunderground v.1.15,2013-05-31 06:35:00,
2013-05-31 02:40:00,70.3,67.5,30.18,South,169,0.0,7.0,91,0.00,,,0.00,0,Wunderground v.1.15,2013-05-31 06:40:00,
2013-05-31 02:45:00,70.3,67.9,30.18,South,169,0.0,7.0,92,0.00,,,0.00,0,Wunderground v.1.15,2013-05-31 06:45:00,
2013-05-31 02:50:00,70.3,67.9,30.18,SSE,159,0.0,7.0,92,0.00,,,0.00,0,Wunderground v.1.15,2013-05-31 06:50:00,
2013-05-31 02:55:00,70.2,67.8,30.18,SSE,155,0.0,7.0,92,0.00,,,0.00,0,Wunderground v.1.15,2013-05-31 06:55:00,
2013-05-31 03:05:00,70.1,67.7,30.18,SSE,162,1.0,7.0,92,0.00,,,0.00,0,Wunderground v.1.15,2013-05-31 07:05:00,
2013-05-31 03:10:00,70.0,67.9,30.18,SE,131,1.0,1.0,93,0.00,,,0.00,0,Wunderground v.1.15,2013-05-31 07:10:00,
2013-05-31 03:15:00,70.0,67.9,30.18,SE,138,0.0,7.0,93,0.00,,,0.00,0,Wunderground v.1.15,2013-05-31 07:15:00,
2013-05-31 03:20:00,69.9,67.8,30.18,SSE,148,0.0,7.0,93,0.00,,,0.00,0,Wunderground v.1.15,2013-05-31 07:20:00,
2013-05-31 03:30:00,69.8,67.7,30.18,SSE,155,0.0,7.0,93,0.00,,,0.00,0,Wunderground v.1.15,2013-05-31 07:30:00,
2013-05-31 03:35:00,69.8,67.7,30.18,SSE,161,0.0,7.0,93,0.00,,,0.00,0,Wunderground v.1.15,2013-05-31 07:35:00,
2013-05-31 03:40:00,69.7,67.6,30.18,SE,135,0.0,7.0,93,0.00,,,0.00,0,Wunderground v.1.15,2013-05-31 07:40:00,
2013-05-31 03:45:00,69.7,67.6,30.18,SSE,150,0.0,7.0,93,0.00,,,0.00,0,Wunderground v.1.15,2013-05-31 07:45:00,
2013-05-31 03:50:00,69.7,67.6,30.18,SSE,150,0.0,7.0,93,0.00,,,0.00,0,Wunderground v.1.15,2013-05-31 07:50:00,
2013-05-31 04:00:00,69.6,67.5,30.18,SSE,150,0.0,7.0,93,0.00,,,0.00,0,Wunderground v.1.15,2013-05-31 08:00:00,
2013-05-31 04:05:00,69.6,67.5,30.19,SSE,150,0.0,7.0,93,0.00,,,0.00,0,Wunderground v.1.15,2013-05-31 08:05:00,
2013-05-31 04:10:00,69.5,67.4,30.18,SSE,150,0.0,7.0,93,0.00,,,0.00,0,Wunderground v.1.15,2013-05-31 08:10:00,
2013-05-31 04:15:00,69.4,67.3,30.18,SSE,150,0.0,7.0,93,0.00,,,0.00,0,Wunderground v.1.15,2013-05-31 08:15:00,
2013-05-31 04:20:00,69.0,66.6,30.19,SSE,150,0.0,7.0,92,0.00,,,0.00,0,Wunderground v.1.15,2013-05-31 08:20:00,
2013-05-31 04:30:00,68.6,66.5,30.18,SSE,150,0.0,7.0,93,0.00,,,0.00,0,Wunderground v.1.15,2013-05-31 08:30:00,
2013-05-31 04:35:00,68.4,66.3,30.19,SSE,150,0.0,7.0,93,0.00,,,0.00,0,Wunderground v.1.15,2013-05-31 08:35:00,
2013-05-31 04:40:00,68.4,66.6,30.19,SSE,150,0.0,7.0,94,0.00,,,0.00,0,Wunderground v.1.15,2013-05-31 08:40:00,
2013-05-31 04:45:00,68.2,66.1,30.19,SSE,150,0.0,7.0,93,0.00,,,0.00,0,Wunderground v.1.15,2013-05-31 08:45:00,
2013-05-31 04:55:00,67.7,65.9,30.19,SSE,150,0.0,7.0,94,0.00,,,0.00,0,Wunderground v.1.15,2013-05-31 08:55:00,
2013-05-31 05:00:00,67.7,65.9,30.19,SSE,150,0.0,7.0,94,0.00,,,0.00,0,Wunderground v.1.15,2013-05-31 09:00:00,
2013-05-31 05:05:00,67.6,65.8,30.19,SSE,150,0.0,7.0,94,0.00,,,0.00,0,Wunderground v.1.15,2013-05-31 09:05:00,
2013-05-31 05:10:00,67.6,66.1,30.19,SSE,150,0.0,7.0,95,0.00,,,0.00,0,Wunderground v.1.15,2013-05-31 09:10:00,
2013-05-31 05:15:00,67.5,65.7,30.19,SSE,150,0.0,7.0,94,0.00,,,0.00,0,Wunderground v.1.15,2013-05-31 09:15:00,
2013-05-31 05:25:00,67.5,66.0,30.19,SSE,150,0.0,7.0,95,0.00,,,0.00,0,Wunderground v.1.15,2013-05-31 09:25:00,
2013-05-31 05:30:00,67.6,66.1,30.19,SSE,150,0.0,7.0,95,0.00,,,0.00,0,Wunderground v.1.15,2013-05-31 09:30:00,
2013-05-31 05:35:00,67.6,66.1,30.19,SSE,150,0.0,7.0,95,0.00,,,0.00,0,Wunderground v.1.15,2013-05-31 09:35:00,
2013-05-31 05:40:00,67.5,66.0,30.19,SSE,150,0.0,7.0,95,0.00,,,0.00,0,Wunderground v.1.15,2013-05-31 09:40:00,
2013-05-31 05:45:00,67.3,65.8,30.19,SSE,150,0.0,7.0,95,0.00,,,0.00,0,Wunderground v.1.15,2013-05-31 09:45:00,
2013-05-31 05:55:00,66.6,64.8,30.19,SSE,150,0.0,7.0,94,0.00,,,0.00,0,Wunderground v.1.15,2013-05-31 09:55:00,
2013-05-31 06:00:00,66.5,65.0,30.20,SSE,150,0.0,7.0,95,0.00,,,0.00,0,Wunderground v.1.15,2013-05-31 10:00:00,
2013-05-31 06:05:00,66.4,64.9,30.19,SSE,150,0.0,7.0,95,0.00,,,0.00,5,Wunderground v.1.15,2013-05-31 10:05:00,
2013-05-31 06:10:00,66.4,64.9,30.19,SSE,150,0.0,7.0,95,0.00,,,0.00,7,Wunderground v.1.15,2013-05-31 10:10:00,
2013-05-31 06:20:00,66.7,65.5,30.20,SSE,150,0.0,7.0,96,0.00,,,0.00,11,Wunderground v.1.15,2013-05-31 10:20:00,
2013-05-31 06:25:00,66.8,65.6,30.20,SSE,150,0.0,7.0,96,0.00,,,0.00,12,Wunderground v.1.15,2013-05-31 10:25:00,
2013-05-31 06:30:00,66.9,65.7,30.20,SSE,150,0.0,7.0,96,0.00,,,0.00,12,Wunderground v.1.15,2013-05-31 10:30:00,
2013-05-31 06:35:00,66.7,65.2,30.20,SSE,150,0.0,7.0,95,0.00,,,0.00,14,Wunderground v.1.15,2013-05-31 10:35:00,
2013-05-31 06:45:00,66.2,64.7,30.20,SSE,150,0.0,7.0,95,0.00,,,0.00,18,Wunderground v.1.15,2013-05-31 10:45:00,
2013-05-31 06:50:00,66.1,64.6,30.20,SSE,150,0.0,7.0,95,0.00,,,0.00,18,Wunderground v.1.15,2013-05-31 10:50:00,
2013-05-31 06:55:00,66.0,64.5,30.20,SSE,150,0.0,7.0,95,0.00,,,0.00,19,Wunderground v.1.15,2013-05-31 10:55:00,
2013-05-31 07:00:00,66.0,64.5,30.20,SSE,150,0.0,7.0,95,0.00,,,0.00,19,Wunderground v.1.15,2013-05-31 11:00:00,
2013-05-31 07:05:00,66.0,64.5,30.20,SSE,150,0.0,7.0,95,0.00,,,0.00,21,Wunderground v.1.15,2013-05-31 11:05:00,
2013-05-31 07:15:00,65.9,64.7,30.20,SSE,150,0.0,7.0,96,0.00,,,0.00,23,Wunderground v.1.15,2013-05-31 11:15:00,
2013-05-31 07:20:00,66.0,64.8,30.20,SSE,150,0.0,7.0,96,0.00,,,0.00,23,Wunderground v.1.15,2013-05-31 11:20:00,
2013-05-31 07:25:00,66.1,64.9,30.20,SSE,150,0.0,7.0,96,0.00,,,0.00,25,Wunderground v.1.15,2013-05-31 11:25:00,
2013-05-31 07:30:00,66.5,65.6,30.20,SSE,150,0.0,7.0,97,0.00,,,0.00,25,Wunderground v.1.15,2013-05-31 11:30:00,
2013-05-31 07:35:00,66.8,65.9,30.20,SSE,150,0.0,7.0,97,0.00,,,0.00,25,Wunderground v.1.15,2013-05-31 11:35:00,
2013-05-31 07:45:00,66.6,65.4,30.20,SSE,150,0.0,7.0,96,0.00,,,0.00,26,Wunderground v.1.15,2013-05-31 11:45:00,
2013-05-31 07:50:00,67.2,66.3,30.20,SSE,150,0.0,7.0,97,0.00,,,0.00,26,Wunderground v.1.15,2013-05-31 11:50:00,
2013-05-31 07:55:00,67.7,66.8,30.20,SSE,150,0.0,7.0,97,0.00,,,0.00,26,Wunderground v.1.15,2013-05-31 11:55:00,
2013-05-31 08:00:00,68.1,67.2,30.20,SSE,150,0.0,7.0,97,0.00,,,0.00,28,Wunderground v.1.15,2013-05-31 12:00:00,
2013-05-31 08:05:00,68.5,67.3,30.20,SSE,150,0.0,7.0,96,0.00,,,0.00,28,Wunderground v.1.15,2013-05-31 12:05:00,
2013-05-31 08:15:00,69.3,67.8,30.20,SSE,165,0.0,7.0,95,0.00,,,0.00,30,Wunderground v.1.15,2013-05-31 12:15:00,
2013-05-31 08:20:00,69.7,67.9,30.20,SSE,165,0.0,7.0,94,0.00,,,0.00,32,Wunderground v.1.15,2013-05-31 12:20:00,
2013-05-31 08:25:00,70.0,67.9,30.20,SSE,165,0.0,7.0,93,0.00,,,0.00,32,Wunderground v.1.15,2013-05-31 12:25:00,
2013-05-31 08:30:00,70.3,68.2,30.20,SSE,165,0.0,7.0,93,0.00,,,0.00,33,Wunderground v.1.15,2013-05-31 12:30:00,
2013-05-31 08:40:00,70.8,68.4,30.20,SSW,211,0.0,7.0,92,0.00,,,0.00,35,Wunderground v.1.15,2013-05-31 12:40:00,
2013-05-31 08:45:00,71.1,68.3,30.20,SW,223,0.0,7.0,91,0.00,,,0.00,37,Wunderground v.1.15,2013-05-31 12:45:00,
2013-05-31 08:50:00,71.3,68.5,30.20,SW,226,0.0,7.0,91,0.00,,,0.00,37,Wunderground v.1.15,2013-05-31 12:50:00,
2013-05-31 09:00:00,72.0,68.9,30.20,SW,225,2.0,2.0,90,0.00,,,0.00,40,Wunderground v.1.15,2013-05-31 13:00:00,
2013-05-31 09:05:00,72.1,69.0,30.20,SW,225,0.0,7.0,90,0.00,,,0.00,40,Wunderground v.1.15,2013-05-31 13:05:00,
2013-05-31 09:10:00,72.1,69.0,30.20,SW,225,0.0,7.0,90,0.00,,,0.00,42,Wunderground v.1.15,2013-05-31 13:10:00,
2013-05-31 09:15:00,72.2,68.8,30.20,SW,225,0.0,7.0,89,0.00,,,0.00,42,Wunderground v.1.15,2013-05-31 13:15:00,
2013-05-31 09:20:00,72.6,69.5,30.20,SW,225,0.0,7.0,90,0.00,,,0.00,44,Wunderground v.1.15,2013-05-31 13:20:00,
2013-05-31 09:30:00,72.9,69.1,30.20,SW,225,0.0,7.0,88,0.00,,,0.00,47,Wunderground v.1.15,2013-05-31 13:30:00,
2013-05-31 09:35:00,73.1,69.3,30.20,SW,225,0.0,7.0,88,0.00,,,0.00,46,Wunderground v.1.15,2013-05-31 13:35:00,
2013-05-31 09:40:00,73.4,69.6,30.20,SW,225,0.0,7.0,88,0.00,,,0.00,49,Wunderground v.1.15,2013-05-31 13:40:00,
2013-05-31 09:45:00,73.7,69.6,30.20,SW,225,0.0,7.0,87,0.00,,,0.00,49,Wunderground v.1.15,2013-05-31 13:45:00,
2013-05-31 09:50:00,74.1,69.6,30.20,SW,225,0.0,7.0,86,0.00,,,0.00,51,Wunderground v.1.15,2013-05-31 13:50:00,
2013-05-31 10:00:00,74.7,69.9,30.20,SW,225,0.0,7.0,85,0.00,,,0.00,54,Wunderground v.1.15,2013-05-31 14:00:00,
2013-05-31 10:05:00,74.9,70.1,30.20,SW,225,0.0,7.0,85,0.00,,,0.00,56,Wunderground v.1.15,2013-05-31 14:05:00,
2013-05-31 10:10:00,75.1,70.3,30.20,SW,225,0.0,7.0,85,0.00,,,0.00,95,Wunderground v.1.15,2013-05-31 14:10:00,
2013-05-31 10:15:00,75.3,70.1,30.20,SW,225,0.0,7.0,84,0.00,,,0.00,70,Wunderground v.1.15,2013-05-31 14:15:00,
2013-05-31 10:20:00,75.5,70.3,30.20,SW,225,0.0,7.0,84,0.00,,,0.00,81,Wunderground v.1.15,2013-05-31 14:20:00,
2013-05-31 10:30:00,75.9,70.4,30.20,SW,225,0.0,7.0,83,0.00,,,0.00,144,Wunderground v.1.15,2013-05-31 14:30:00,
2013-05-31 10:35:00,76.2,70.3,30.20,SW,225,0.0,7.0,82,0.00,,,0.00,134,Wunderground v.1.15,2013-05-31 14:35:00,
2013-05-31 10:40:00,76.5,70.2,30.20,SW,225,0.0,7.0,81,0.00,,,0.00,174,Wunderground v.1.15,2013-05-31 14:40:00,
2013-05-31 10:45:00,76.7,70.4,30.19,SW,225,0.0,7.0,81,0.00,,,0.00,111,Wunderground v.1.15,2013-05-31 14:45:00,
2013-05-31 10:55:00,77.2,70.5,30.20,SW,225,0.0,7.0,80,0.00,,,0.00,151,Wunderground v.1.15,2013-05-31 14:55:00,
2013-05-31 11:00:00,77.6,70.2,30.20,SW,225,0.0,7.0,78,0.00,,,0.00,722,Wunderground v.1.15,2013-05-31 15:00:00,
2013-05-31 11:05:00,78.1,71.1,30.20,SSW,208,0.0,7.0,79,0.00,,,0.00,837,Wunderground v.1.15,2013-05-31 15:05:00,
2013-05-31 11:10:00,79.0,70.4,30.20,SSW,208,0.0,7.0,75,0.00,,,0.00,889,Wunderground v.1.15,2013-05-31 15:10:00,
2013-05-31 11:20:00,81.2,71.3,30.20,SSE,163,0.0,7.0,72,0.00,,,0.00,276,Wunderground v.1.15,2013-05-31 15:20:00,
2013-05-31 11:25:00,82.0,71.2,30.20,South,171,1.0,7.0,70,0.00,,,0.00,986,Wunderground v.1.15,2013-05-31 15:25:00,
2013-05-31 11:30:00,82.9,71.7,30.20,SSE,159,1.0,7.0,69,0.00,,,0.00,1039,Wunderground v.1.15,2013-05-31 15:30:00,
2013-05-31 11:35:00,83.4,71.7,30.19,South,176,0.0,7.0,68,0.00,,,0.00,1011,Wunderground v.1.15,2013-05-31 15:35:00,
2013-05-31 11:45:00,83.3,71.2,30.19,South,185,0.0,7.0,67,0.00,,,0.00,1041,Wunderground v.1.15,2013-05-31 15:45:00,
2013-05-31 11:50:00,83.5,70.9,30.19,South,179,3.0,7.0,66,0.00,,,0.00,1007,Wunderground v.1.15,2013-05-31 15:50:00,
2013-05-31 11:55:00,83.8,70.8,30.19,South,180,5.0,7.0,65,0.00,,,0.00,1030,Wunderground v.1.15,2013-05-31 15:55:00,
2013-05-31 12:00:00,83.7,70.7,30.20,South,185,2.0,7.0,65,0.00,,,0.00,281,Wunderground v.1.15,2013-05-31 16:00:00,
2013-05-31 12:05:00,83.2,70.2,30.19,SSW,196,1.0,7.0,65,0.00,,,0.00,1049,Wunderground v.1.15,2013-05-31 16:05:00,
2013-05-31 12:15:00,83.5,69.6,30.19,South,184,3.0,9.0,63,0.00,,,0.00,183,Wunderground v.1.15,2013-05-31 16:15:00,
2013-05-31 12:20:00,83.8,69.4,30.19,SSE,158,3.0,7.0,62,0.00,,,0.00,163,Wunderground v.1.15,2013-05-31 16:20:00,
2013-05-31 12:25:00,83.3,69.8,30.19,SSE,149,1.0,7.0,64,0.00,,,0.00,1067,Wunderground v.1.15,2013-05-31 16:25:00,
2013-05-31 12:30:00,83.2,69.8,30.19,South,188,1.0,1.0,64,0.00,,,0.00,172,Wunderground v.1.15,2013-05-31 16:30:00,
2013-05-31 12:40:00,82.4,69.4,30.19,SSE,166,2.0,2.0,65,0.00,,,0.00,1079,Wunderground v.1.15,2013-05-31 16:40:00,
2013-05-31 12:45:00,83.0,69.1,30.18,SSE,155,2.0,4.0,63,0.00,,,0.00,237,Wunderground v.1.15,2013-05-31 16:45:00,
2013-05-31 12:50:00,83.1,69.2,30.19,South,181,2.0,7.0,63,0.00,,,0.00,1044,Wunderground v.1.15,2013-05-31 16:50:00,
2013-05-31 12:55:00,83.0,69.1,30.18,South,182,4.0,7.0,63,0.00,,,0.00,868,Wunderground v.1.15,2013-05-31 16:55:00,
2013-05-31 13:00:00,83.1,69.2,30.18,SSW,202,3.0,7.0,63,0.00,,,0.00,949,Wunderground v.1.15,2013-05-31 17:00:00,
2013-05-31 13:10:00,83.9,68.5,30.18,SSE,159,6.0,6.0,60,0.00,,,0.00,213,Wunderground v.1.15,2013-05-31 17:10:00,
2013-05-31 13:15:00,84.4,69.0,30.18,South,188,7.0,7.0,60,0.00,,,0.00,1021,Wunderground v.1.15,2013-05-31 17:15:00,
2013-05-31 13:20:00,84.6,68.7,30.17,South,176,6.0,6.0,59,0.00,,,0.00,1063,Wunderground v.1.15,2013-05-31 17:20:00,
2013-05-31 13:25:00,84.7,68.8,30.17,South,178,4.0,7.0,59,0.00,,,0.00,995,Wunderground v.1.15,2013-05-31 17:25:00,
2013-05-31 13:30:00,84.7,69.3,30.17,SSE,167,5.0,7.0,60,0.00,,,0.00,998,Wunderground v.1.15,2013-05-31 17:30:00,
2013-05-31 13:40:00,84.8,69.4,30.17,SSW,198,2.0,7.0,60,0.00,,,0.00,195,Wunderground v.1.15,2013-05-31 17:40:00,
2013-05-31 13:45:00,84.8,68.9,30.16,South,169,3.0,7.0,59,0.00,,,0.00,1027,Wunderground v.1.15,2013-05-31 17:45:00,
2013-05-31 13:50:00,84.8,68.4,30.16,SSE,165,6.0,8.0,58,0.00,,,0.00,1023,Wunderground v.1.15,2013-05-31 17:50:00,
2013-05-31 13:55:00,84.7,68.3,30.16,SSW,198,6.0,8.0,58,0.00,,,0.00,1044,Wunderground v.1.15,2013-05-31 17:55:00,
2013-05-31 14:00:00,84.4,68.5,30.16,ESE,123,5.0,5.0,59,0.00,,,0.00,1030,Wunderground v.1.15,2013-05-31 18:00:00,
2013-05-31 14:10:00,85.5,68.5,30.16,South,188,6.0,6.0,57,0.00,,,0.00,1034,Wunderground v.1.15,2013-05-31 18:10:00,
2013-05-31 14:15:00,85.5,68.0,30.16,South,173,6.0,7.0,56,0.00,,,0.00,1025,Wunderground v.1.15,2013-05-31 18:15:00,
2013-05-31 14:20:00,85.1,68.7,30.15,South,182,6.0,8.0,58,0.00,,,0.00,1027,Wunderground v.1.15,2013-05-31 18:20:00,
2013-05-31 14:30:00,85.1,68.7,30.15,South,170,5.0,10.0,58,0.00,,,0.00,1032,Wunderground v.1.15,2013-05-31 18:30:00,
2013-05-31 14:35:00,85.2,68.2,30.14,South,188,6.0,10.0,57,0.00,,,0.00,153,Wunderground v.1.15,2013-05-31 18:35:00,
2013-05-31 14:40:00,85.3,68.3,30.15,SSE,166,8.0,8.0,57,0.00,,,0.00,329,Wunderground v.1.15,2013-05-31 18:40:00,
2013-05-31 14:45:00,84.6,68.2,30.15,SSW,194,7.0,8.0,58,0.00,,,0.00,163,Wunderground v.1.15,2013-05-31 18:45:00,
2013-05-31 14:55:00,84.1,68.7,30.14,SSE,161,4.0,7.0,60,0.00,,,0.00,234,Wunderground v.1.15,2013-05-31 18:55:00,
2013-05-31 15:00:00,83.9,68.0,30.14,South,169,5.0,7.0,59,0.00,,,0.00,1039,Wunderground v.1.15,2013-05-31 19:00:00,
2013-05-31 15:10:00,85.0,68.1,30.14,SSW,192,4.0,4.0,57,0.00,,,0.00,942,Wunderground v.1.15,2013-05-31 19:10:00,
2013-05-31 15:15:00,85.4,68.4,30.14,South,175,3.0,7.0,57,0.00,,,0.00,965,Wunderground v.1.15,2013-05-31 19:15:00,
2013-05-31 15:20:00,85.7,68.2,30.13,South,188,5.0,12.0,56,0.00,,,0.00,979,Wunderground v.1.15,2013-05-31 19:20:00,
2013-05-31 15:25:00,85.7,67.7,30.13,SSW,196,8.0,12.0,55,0.00,,,0.00,944,Wunderground v.1.15,2013-05-31 19:25:00,
2013-05-31 15:30:00,85.8,67.8,30.13,SSE,164,7.0,7.0,55,0.00,,,0.00,930,Wunderground v.1.15,2013-05-31 19:30:00,
2013-05-31 15:40:00,85.1,68.7,30.12,South,178,5.0,7.0,58,0.00,,,0.00,144,Wunderground v.1.15,2013-05-31 19:40:00,
2013-05-31 15:45:00,85.2,68.8,30.13,South,183,5.0,7.0,58,0.00,,,0.00,896,Wunderground v.1.15,2013-05-31 19:45:00,
2013-05-31 15:50:00,85.2,68.2,30.12,SSE,153,6.0,6.0,57,0.00,,,0.00,176,Wunderground v.1.15,2013-05-31 19:50:00,
2013-05-31 15:55:00,84.7,67.8,30.12,SSW,198,6.0,8.0,57,0.00,,,0.00,185,Wunderground v.1.15,2013-05-31 19:55:00,
2013-05-31 16:05:00,84.7,67.8,30.12,South,172,7.0,7.0,57,0.00,,,0.00,853,Wunderground v.1.15,2013-05-31 20:05:00,
2013-05-31 16:10:00,84.2,67.8,30.11,SSE,167,5.0,7.0,58,0.00,,,0.00,849,Wunderground v.1.15,2013-05-31 20:10:00,
2013-05-31 16:15:00,84.4,67.5,30.11,SSW,197,5.0,7.0,57,0.00,,,0.00,803,Wunderground v.1.15,2013-05-31 20:15:00,
2013-05-31 16:20:00,84.6,67.7,30.11,South,175,6.0,6.0,57,0.00,,,0.00,195,Wunderground v.1.15,2013-05-31 20:20:00,
2013-05-31 16:25:00,85.0,67.5,30.11,SSW,200,6.0,10.0,56,0.00,,,0.00,737,Wunderground v.1.15,2013-05-31 20:25:00,
2013-05-31 16:35:00,84.7,67.8,30.10,South,180,4.0,7.0,57,0.00,,,0.00,728,Wunderground v.1.15,2013-05-31 20:35:00,
2013-05-31 16:40:00,85.0,68.1,30.10,SSW,204,2.0,7.0,57,0.00,,,0.00,724,Wunderground v.1.15,2013-05-31 20:40:00,
2013-05-31 16:45:00,85.2,68.2,30.10,SW,216,2.0,7.0,57,0.00,,,0.00,276,Wunderground v.1.15,2013-05-31 20:45:00,
2013-05-31 16:50:00,85.4,67.4,30.10,South,179,4.0,9.0,55,0.00,,,0.00,682,Wunderground v.1.15,2013-05-31 20:50:00,
2013-05-31 16:55:00,85.4,66.9,30.10,SSE,159,6.0,9.0,54,0.00,,,0.00,659,Wunderground v.1.15,2013-05-31 20:55:00,
2013-05-31 17:05:00,85.4,67.4,30.10,South,186,5.0,7.0,55,0.00,,,0.00,631,Wunderground v.1.15,2013-05-31 21:05:00,
2013-05-31 17:10:00,85.2,67.7,30.10,South,181,5.0,7.0,56,0.00,,,0.00,608,Wunderground v.1.15,2013-05-31 21:10:00,
2013-05-31 17:15:00,84.8,67.4,30.10,SSE,162,5.0,7.0,56,0.00,,,0.00,594,Wunderground v.1.15,2013-05-31 21:15:00,
2013-05-31 17:25:00,85.0,67.5,30.10,South,188,5.0,10.0,56,0.00,,,0.00,570,Wunderground v.1.15,2013-05-31 21:25:00,
2013-05-31 17:30:00,85.3,67.3,30.10,SSW,213,6.0,7.0,55,0.00,,,0.00,564,Wunderground v.1.15,2013-05-31 21:30:00,
2013-05-31 17:35:00,85.2,66.7,30.09,SSW,192,6.0,7.0,54,0.00,,,0.00,118,Wunderground v.1.15,2013-05-31 21:35:00,
2013-05-31 17:40:00,84.8,66.8,30.09,South,186,6.0,6.0,55,0.00,,,0.00,515,Wunderground v.1.15,2013-05-31 21:40:00,
2013-05-31 17:45:00,84.8,66.3,30.09,SSW,212,5.0,7.0,54,0.00,,,0.00,508,Wunderground v.1.15,2013-05-31 21:45:00,
2013-05-31 17:55:00,84.8,66.8,30.09,South,178,6.0,12.0,55,0.00,,,0.00,462,Wunderground v.1.15,2013-05-31 21:55:00,
2013-05-31 18:00:00,84.9,66.9,30.09,South,175,7.0,7.0,55,0.00,,,0.00,446,Wunderground v.1.15,2013-05-31 22:00:00,
2013-05-31 18:05:00,85.3,66.2,30.09,South,184,7.0,7.0,53,0.00,,,0.00,431,Wunderground v.1.15,2013-05-31 22:05:00,
2013-05-31 18:10:00,85.2,66.1,30.09,South,186,5.0,7.0,53,0.00,,,0.00,410,Wunderground v.1.15,2013-05-31 22:10:00,
2013-05-31 18:15:00,85.6,67.0,30.09,South,173,4.0,7.0,54,0.00,,,0.00,396,Wunderground v.1.15,2013-05-31 22:15:00,
2013-05-31 18:25:00,85.1,67.1,30.09,South,173,5.0,7.0,55,0.00,,,0.00,359,Wunderground v.1.15,2013-05-31 22:25:00,
2013-05-31 18:30:00,85.2,67.2,30.09,South,170,3.0,7.0,55,0.00,,,0.00,348,Wunderground v.1.15,2013-05-31 22:30:00,
2013-05-31 18:35:00,85.0,67.5,30.09,South,186,4.0,7.0,56,0.00,,,0.00,311,Wunderground v.1.15,2013-05-31 22:35:00,
2013-05-31 18:40:00,85.0,67.5,30.09,South,180,4.0,7.0,56,0.00,,,0.00,304,Wunderground v.1.15,2013-05-31 22:40:00,
2013-05-31 18:45:00,85.1,67.1,30.08,South,175,4.0,7.0,55,0.00,,,0.00,292,Wunderground v.1.15,2013-05-31 22:45:00,
2013-05-31 18:55:00,85.2,67.2,30.08,South,187,5.0,7.0,55,0.00,,,0.00,262,Wunderground v.1.15,2013-05-31 22:55:00,
2013-05-31 19:00:00,85.1,67.1,30.08,South,176,4.0,4.0,55,0.00,,,0.00,244,Wunderground v.1.15,2013-05-31 23:00:00,
2013-05-31 19:05:00,85.1,67.1,30.09,South,179,3.0,7.0,55,0.00,,,0.00,225,Wunderground v.1.15,2013-05-31 23:05:00,
2013-05-31 19:10:00,85.2,67.7,30.08,South,180,3.0,3.0,56,0.00,,,0.00,204,Wunderground v.1.15,2013-05-31 23:10:00,
2013-05-31 19:15:00,85.4,67.9,30.09,South,179,2.0,7.0,56,0.00,,,0.00,185,Wunderground v.1.15,2013-05-31 23:15:00,
2013-05-31 19:25:00,85.9,69.4,30.09,South,179,0.0,7.0,58,0.00,,,0.00,149,Wunderground v.1.15,2013-05-31 23:25:00,
2013-05-31 19:30:00,85.9,68.9,30.09,South,178,0.0,7.0,57,0.00,,,0.00,130,Wunderground v.1.15,2013-05-31 23:30:00,
2013-05-31 19:35:00,85.9,70.9,30.09,South,178,0.0,7.0,61,0.00,,,0.00,111,Wunderground v.1.15,2013-05-31 23:35:00,
2013-05-31 19:45:00,84.3,70.8,30.08,South,178,0.0,7.0,64,0.00,,,0.00,77,Wunderground v.1.15,2013-05-31 23:45:00,
2013-05-31 19:50:00,83.1,69.7,30.09,South,178,0.0,7.0,64,0.00,,,0.00,65,Wunderground v.1.15,2013-05-31 23:50:00,
2013-05-31 19:55:00,82.5,70.0,30.09,South,178,0.0,7.0,66,0.00,,,0.00,53,Wunderground v.1.15,2013-05-31 23:55:00,
2013-05-31 20:00:00,81.8,70.2,30.09,South,178,0.0,7.0,68,0.00,,,0.00,40,Wunderground v.1.15,2013-06-01 00:00:00,
2013-05-31 20:05:00,81.2,69.2,30.09,South,178,0.0,7.0,67,0.00,,,0.00,33,Wunderground v.1.15,2013-06-01 00:05:00,
2013-05-31 20:15:00,80.2,69.1,30.09,South,178,0.0,7.0,69,0.00,,,0.00,9,Wunderground v.1.15,2013-06-01 00:15:00,
2013-05-31 20:20:00,79.5,68.4,30.09,South,178,0.0,7.0,69,0.00,,,0.00,5,Wunderground v.1.15,2013-06-01 00:20:00,
2013-05-31 20:25:00,78.7,68.5,30.08,South,178,0.0,7.0,71,0.00,,,0.00,0,Wunderground v.1.15,2013-06-01 00:25:00,
2013-05-31 20:30:00,77.8,67.6,30.09,South,178,0.0,7.0,71,0.00,,,0.00,0,Wunderground v.1.15,2013-06-01 00:30:00,
2013-05-31 20:35:00,77.1,67.8,30.09,South,178,0.0,7.0,73,0.00,,,0.00,0,Wunderground v.1.15,2013-06-01 00:35:00,
2013-05-31 20:45:00,75.9,67.8,30.09,South,178,0.0,7.0,76,0.00,,,0.00,0,Wunderground v.1.15,2013-06-01 00:45:00,
2013-05-31 20:50:00,75.2,67.1,30.09,South,178,0.0,7.0,76,0.00,,,0.00,0,Wunderground v.1.15,2013-06-01 00:50:00,
2013-05-31 20:55:00,74.4,66.7,30.09,South,178,0.0,7.0,77,0.00,,,0.00,0,Wunderground v.1.15,2013-06-01 00:55:00,
2013-05-31 21:00:00,73.7,66.8,30.09,South,178,0.0,7.0,79,0.00,,,0.00,0,Wunderground v.1.15,2013-06-01 01:00:00,
2013-05-31 21:05:00,73.0,66.5,30.09,South,178,0.0,7.0,80,0.00,,,0.00,0,Wunderground v.1.15,2013-06-01 01:05:00,
2013-05-31 21:15:00,72.1,66.3,30.09,South,178,0.0,7.0,82,0.00,,,0.00,0,Wunderground v.1.15,2013-06-01 01:15:00,
2013-05-31 21:20:00,71.9,66.5,30.09,South,178,0.0,7.0,83,0.00,,,0.00,0,Wunderground v.1.15,2013-06-01 01:20:00,
2013-05-31 21:25:00,71.6,66.5,30.09,South,178,0.0,7.0,84,0.00,,,0.00,0,Wunderground v.1.15,2013-06-01 01:25:00,
2013-05-31 21:30:00,71.4,66.3,30.09,South,178,0.0,7.0,84,0.00,,,0.00,0,Wunderground v.1.15,2013-06-01 01:30:00,
2013-05-31 21:40:00,71.2,66.8,30.09,South,178,0.0,7.0,86,0.00,,,0.00,0,Wunderground v.1.15,2013-06-01 01:40:00,
2013-05-31 21:45:00,71.0,66.9,30.10,South,178,0.0,7.0,87,0.00,,,0.00,0,Wunderground v.1.15,2013-06-01 01:45:00,
2013-05-31 21:50:00,70.8,66.4,30.09,South,178,0.0,7.0,86,0.00,,,0.00,0,Wunderground v.1.15,2013-06-01 01:50:00,
2013-05-31 21:55:00,70.5,66.1,30.09,South,178,0.0,7.0,86,0.00,,,0.00,0,Wunderground v.1.15,2013-06-01 01:55:00,
2013-05-31 22:05:00,70.2,66.5,30.09,South,178,0.0,7.0,88,0.00,,,0.00,0,Wunderground v.1.15,2013-06-01 02:05:00,
2013-05-31 22:10:00,70.2,66.8,30.09,South,178,0.0,7.0,89,0.00,,,0.00,0,Wunderground v.1.15,2013-06-01 02:10:00,
2013-05-31 22:15:00,70.1,66.7,30.09,South,178,0.0,7.0,89,0.00,,,0.00,0,Wunderground v.1.15,2013-06-01 02:15:00,
2013-05-31 22:20:00,69.9,66.2,30.09,South,178,0.0,7.0,88,0.00,,,0.00,0,Wunderground v.1.15,2013-06-01 02:20:00,
2013-05-31 22:25:00,69.7,66.0,30.10,South,178,0.0,7.0,88,0.00,,,0.00,0,Wunderground v.1.15,2013-06-01 02:25:00,
2013-05-31 22:35:00,69.4,66.0,30.10,South,178,0.0,7.0,89,0.00,,,0.00,0,Wunderground v.1.15,2013-06-01 02:35:00,
2013-05-31 22:40:00,69.2,66.1,30.10,South,178,0.0,7.0,90,0.00,,,0.00,0,Wunderground v.1.15,2013-06-01 02:40:00,
2013-05-31 22:45:00,69.2,66.1,30.10,South,178,0.0,7.0,90,0.00,,,0.00,0,Wunderground v.1.15,2013-06-01 02:45:00,
2013-05-31 22:50:00,69.0,65.9,30.10,South,178,0.0,7.0,90,0.00,,,0.00,0,Wunderground v.1.15,2013-06-01 02:50:00,
2013-05-31 22:55:00,69.0,66.3,30.10,South,178,0.0,7.0,91,0.00,,,0.00,0,Wunderground v.1.15,2013-06-01 02:55:00,
2013-05-31 23:05:00,70.8,67.1,30.10,South,171,3.0,7.0,88,0.00,,,0.00,0,Wunderground v.1.15,2013-06-01 03:05:00,
2013-05-31 23:10:00,72.3,67.2,30.10,South,173,5.0,5.0,84,0.00,,,0.00,0,Wunderground v.1.15,2013-06-01 03:10:00,
2013-05-31 23:15:00,73.2,67.7,30.10,SSE,156,5.0,7.0,83,0.00,,,0.00,0,Wunderground v.1.15,2013-06-01 03:15:00,
2013-05-31 23:25:00,73.8,68.0,30.10,SSE,163,4.0,7.0,82,0.00,,,0.00,0,Wunderground v.1.15,2013-06-01 03:25:00,
2013-05-31 23:30:00,73.9,68.1,30.10,South,177,4.0,7.0,82,0.00,,,0.00,0,Wunderground v.1.15,2013-06-01 03:30:00,
2013-05-31 23:35:00,74.1,68.3,30.10,South,171,5.0,7.0,82,0.00,,,0.00,0,Wunderground v.1.15,2013-06-01 03:35:00,
2013-05-31 23:40:00,74.1,68.3,30.10,SSE,167,5.0,5.0,82,0.00,,,0.00,0,Wunderground v.1.15,2013-06-01 03:40:00,
2013-05-31 23:45:00,74.0,68.2,30.10,SSW,202,3.0,7.0,82,0.00,,,0.00,0,Wunderground v.1.15,2013-06-01 03:45:00,
2013-05-31 23:55:00,73.9,68.4,30.10,South,180,3.0,7.0,83,0.00,,,0.00,0,Wunderground v.1.15,2013-06-01 03:55:00,